Wetterdaten: Woche 11.10.10 - 17.10.10 (KW41)
Datum Zeit Temp. A. Feuchte A. Luftdruck Regen Wind Richtung Taupunkt Windchill Windben
11.10.2010 00:00 7,2 C 75 % 1005,7 hPa 0,0 l/m 0,0 km/h O 3,1 C 7,2 C 0,0 km/h
11.10.2010 01:00 5,5 C 83 % 1005,6 hPa 0,0 l/m 0,0 km/h W-NW 2,8 C 5,5 C 0,0 km/h
11.10.2010 02:00 4,7 C 86 % 1005,7 hPa 0,0 l/m 0,0 km/h O-NO 2,6 C 4,7 C 0,0 km/h
11.10.2010 03:00 3,8 C 87 % 1005,4 hPa 0,0 l/m 0,0 km/h O-SO 1,8 C 3,8 C 0,0 km/h
11.10.2010 04:00 2,8 C 88 % 1005,1 hPa 0,0 l/m 0,0 km/h O-NO 1,0 C 2,8 C 0,0 km/h
11.10.2010 05:00 2,9 C 88 % 1005,2 hPa 0,0 l/m 0,0 km/h W-NW 1,1 C 2,9 C 0,0 km/h
11.10.2010 06:00 2,8 C 88 % 1005,4 hPa 0,0 l/m 0,0 km/h SO 1,0 C 2,8 C 0,0 km/h
11.10.2010 07:00 1,3 C 88 % 1006,0 hPa 0,0 l/m 0,0 km/h O-SO -0,5 C 1,3 C 0,0 km/h
11.10.2010 08:00 1,8 C 88 % 1006,7 hPa 0,0 l/m 0,0 km/h W-SW 0,0 C 1,8 C 0,0 km/h
11.10.2010 09:00 7,4 C 88 % 1007,1 hPa 0,0 l/m 0,0 km/h S-SW 5,5 C 7,4 C 0,0 km/h
11.10.2010 10:00 13,9 C 67 % 1007,5 hPa 0,0 l/m 0,6 km/h SW 7,9 C 13,9 C 0,4 km/h
11.10.2010 11:00 16,7 C 57 % 1007,4 hPa 0,0 l/m 1,9 km/h W-NW 8,1 C 16,7 C 1,1 km/h
11.10.2010 12:00 19,3 C 51 % 1007,1 hPa 0,0 l/m 3,2 km/h S-SW 8,9 C 19,3 C 1,8 km/h
11.10.2010 13:00 20,6 C 47 % 1006,5 hPa 0,0 l/m 0,0 km/h SO 8,9 C 20,6 C 0,0 km/h
11.10.2010 14:00 22,1 C 42 % 1006,1 hPa 0,0 l/m 3,2 km/h N-NO 8,6 C 22,1 C 1,8 km/h
11.10.2010 15:00 24,4 C 33 % 1006,1 hPa 0,0 l/m 0,0 km/h N 7,1 C 24,4 C 0,0 km/h
11.10.2010 16:00 26,8 C 27 % 1006,2 hPa 0,0 l/m 7,8 km/h NO 6,2 C 26,5 C 4,3 km/h
11.10.2010 17:00 25,0 C 28 % 1006,7 hPa 0,0 l/m 0,0 km/h N-NO 5,2 C 25,0 C 0,0 km/h
11.10.2010 18:00 17,8 C 40 % 1007,0 hPa 0,0 l/m 0,0 km/h SO 4,0 C 17,8 C 0,0 km/h
11.10.2010 19:00 11,1 C 60 % 1008,3 hPa 0,0 l/m 0,0 km/h NO 3,6 C 11,1 C 0,0 km/h
11.10.2010 20:00 8,8 C 70 % 1008,8 hPa 0,0 l/m 0,0 km/h NO 3,6 C 8,8 C 0,0 km/h
11.10.2010 21:00 7,3 C 78 % 1009,4 hPa 0,0 l/m 0,0 km/h N-NO 3,7 C 7,3 C 0,0 km/h
11.10.2010 22:00 6,4 C 82 % 1010,0 hPa 0,0 l/m 0,0 km/h NO 3,6 C 6,4 C 0,0 km/h
11.10.2010 23:00 5,2 C 85 % 1010,3 hPa 0,0 l/m 0,0 km/h NO 2,9 C 5,2 C 0,0 km/h
12.10.2010 00:00 5,3 C 86 % 1010,1 hPa 0,0 l/m 0,0 km/h NO 3,2 C 5,3 C 0,0 km/h
12.10.2010 01:00 3,8 C 86 % 1010,6 hPa 0,0 l/m 0,0 km/h O-NO 1,7 C 3,8 C 0,0 km/h
12.10.2010 02:00 3,5 C 87 % 1010,9 hPa 0,0 l/m 0,0 km/h O-NO 1,5 C 3,5 C 0,0 km/h
12.10.2010 03:00 1,9 C 88 % 1011,4 hPa 0,0 l/m 0,0 km/h O-NO 0,1 C 1,9 C 0,0 km/h
12.10.2010 04:00 1,9 C 88 % 1011,6 hPa 0,0 l/m 0,0 km/h O-NO 0,1 C 1,9 C 0,0 km/h
12.10.2010 05:00 1,9 C 88 % 1011,7 hPa 0,0 l/m 0,0 km/h N-NO 0,1 C 1,9 C 0,0 km/h
12.10.2010 06:00 1,6 C 88 % 1012,0 hPa 0,0 l/m 0,0 km/h S-SW -0,2 C 1,6 C 0,0 km/h
12.10.2010 07:00 0,8 C 88 % 1012,3 hPa 0,0 l/m 0,0 km/h O-SO -1,0 C 0,8 C 0,0 km/h
12.10.2010 08:00 1,3 C 88 % 1012,3 hPa 0,0 l/m 0,0 km/h N -0,5 C 1,3 C 0,0 km/h
12.10.2010 09:00 6,1 C 87 % 1012,5 hPa 0,0 l/m 0,0 km/h W 4,1 C 6,1 C 0,0 km/h
12.10.2010 10:00 11,6 C 75 % 1012,5 hPa 0,0 l/m 0,0 km/h S 7,3 C 11,6 C 0,0 km/h
12.10.2010 11:00 14,7 C 63 % 1012,4 hPa 0,0 l/m 0,0 km/h N-NO 7,7 C 14,7 C 0,0 km/h
12.10.2010 12:00 16,3 C 58 % 1011,8 hPa 0,0 l/m 0,0 km/h NW 8,0 C 16,3 C 0,0 km/h
12.10.2010 13:00 17,2 C 56 % 1011,2 hPa 0,0 l/m 0,0 km/h N-NW 8,3 C 17,2 C 0,0 km/h
12.10.2010 14:00 17,6 C 55 % 1010,2 hPa 0,0 l/m 0,0 km/h W-NW 8,5 C 17,6 C 0,0 km/h
12.10.2010 15:00 19,9 C 50 % 1009,7 hPa 0,0 l/m 0,0 km/h SO 9,2 C 19,9 C 0,0 km/h
12.10.2010 16:00 23,3 C 45 % 1009,2 hPa 0,0 l/m 0,0 km/h N 10,7 C 23,3 C 0,0 km/h
12.10.2010 17:00 21,5 C 45 % 1009,3 hPa 0,0 l/m 0,0 km/h NW 9,1 C 21,5 C 0,0 km/h
12.10.2010 18:00 15,4 C 58 % 1009,5 hPa 0,0 l/m 0,0 km/h N-NO 7,2 C 15,4 C 0,0 km/h
12.10.2010 19:00 9,0 C 78 % 1009,9 hPa 0,0 l/m 0,0 km/h NO 5,4 C 9,0 C 0,0 km/h
12.10.2010 20:00 7,1 C 85 % 1010,3 hPa 0,0 l/m 0,0 km/h SO 4,8 C 7,1 C 0,0 km/h
12.10.2010 21:00 5,4 C 86 % 1010,3 hPa 0,0 l/m 0,0 km/h N-NO 3,3 C 5,4 C 0,0 km/h
12.10.2010 22:00 4,9 C 87 % 1010,7 hPa 0,0 l/m 0,0 km/h N-NO 2,9 C 4,9 C 0,0 km/h
12.10.2010 23:00 4,4 C 88 % 1010,6 hPa 0,0 l/m 0,0 km/h O-SO 2,6 C 4,4 C 0,0 km/h
13.10.2010 00:00 3,3 C 88 % 1010,6 hPa 0,0 l/m 0,0 km/h O-SO 1,5 C 3,3 C 0,0 km/h
13.10.2010 01:00 2,6 C 88 % 1010,4 hPa 0,0 l/m 0,0 km/h O-NO 0,8 C 2,6 C 0,0 km/h
13.10.2010 02:00 2,8 C 88 % 1010,2 hPa 0,0 l/m 0,0 km/h O-SO 1,0 C 2,8 C 0,0 km/h
13.10.2010 03:00 1,8 C 88 % 1010,3 hPa 0,0 l/m 0,0 km/h W-SW 0,0 C 1,8 C 0,0 km/h
13.10.2010 04:00 1,6 C 88 % 1010,1 hPa 0,0 l/m 0,0 km/h N-NW -0,2 C 1,6 C 0,0 km/h
13.10.2010 05:00 1,6 C 88 % 1009,9 hPa 0,0 l/m 0,0 km/h NW -0,2 C 1,6 C 0,0 km/h
13.10.2010 06:00 1,8 C 88 % 1010,4 hPa 0,0 l/m 0,0 km/h W-SW 0,0 C 1,8 C 0,0 km/h
13.10.2010 07:00 3,8 C 88 % 1011,0 hPa 0,0 l/m 0,0 km/h W-SW 2,0 C 3,8 C 0,0 km/h
13.10.2010 08:00 3,9 C 87 % 1011,3 hPa 0,0 l/m 0,0 km/h W 1,9 C 3,9 C 0,0 km/h
13.10.2010 09:00 4,3 C 88 % 1011,4 hPa 0,0 l/m 0,0 km/h W 2,5 C 4,3 C 0,0 km/h
13.10.2010 10:00 5,1 C 87 % 1011,6 hPa 0,0 l/m 0,0 km/h W 3,1 C 5,1 C 0,0 km/h
13.10.2010 11:00 5,9 C 87 % 1011,9 hPa 0,0 l/m 0,0 km/h S-SW 3,9 C 5,9 C 0,0 km/h
13.10.2010 12:00 6,0 C 88 % 1012,0 hPa 0,0 l/m 3,9 km/h W-SW 4,2 C 6,0 C 2,2 km/h
13.10.2010 13:00 6,6 C 88 % 1011,5 hPa 0,0 l/m 0,0 km/h W-SW 4,8 C 6,6 C 0,0 km/h
13.10.2010 14:00 7,3 C 87 % 1011,1 hPa 0,0 l/m 1,9 km/h S-SO 5,3 C 7,3 C 1,1 km/h
13.10.2010 15:00 10,3 C 83 % 1010,7 hPa 0,0 l/m 0,0 km/h W-SW 7,5 C 10,3 C 0,0 km/h
13.10.2010 16:00 15,9 C 64 % 1010,3 hPa 0,0 l/m 0,0 km/h SO 9,1 C 15,9 C 0,0 km/h
13.10.2010 17:00 15,3 C 62 % 1010,3 hPa 0,0 l/m 0,0 km/h S-SO 8,1 C 15,3 C 0,0 km/h
13.10.2010 18:00 9,2 C 76 % 1011,2 hPa 0,0 l/m 0,0 km/h NO 5,2 C 9,2 C 0,0 km/h
13.10.2010 19:00 5,8 C 86 % 1011,8 hPa 0,0 l/m 0,0 km/h SO 3,6 C 5,8 C 0,0 km/h
13.10.2010 20:00 4,6 C 87 % 1012,3 hPa 0,0 l/m 0,0 km/h O-NO 2,6 C 4,6 C 0,0 km/h
13.10.2010 21:00 6,0 C 87 % 1012,4 hPa 0,0 l/m 0,0 km/h O-SO 4,0 C 6,0 C 0,0 km/h
13.10.2010 22:00 5,4 C 88 % 1012,4 hPa 0,0 l/m 0,0 km/h O-NO 3,6 C 5,4 C 0,0 km/h
13.10.2010 23:00 4,4 C 88 % 1012,3 hPa 0,0 l/m 0,0 km/h O-SO 2,6 C 4,4 C 0,0 km/h
14.10.2010 00:00 3,3 C 88 % 1012,2 hPa 0,0 l/m 0,0 km/h NO 1,5 C 3,3 C 0,0 km/h
14.10.2010 01:00 3,5 C 88 % 1012,3 hPa 0,0 l/m 0,0 km/h NO 1,7 C 3,5 C 0,0 km/h
14.10.2010 02:00 3,6 C 88 % 1012,1 hPa 0,0 l/m 0,0 km/h S-SO 1,8 C 3,6 C 0,0 km/h
14.10.2010 03:00 1,6 C 88 % 1012,1 hPa 0,0 l/m 0,0 km/h O-NO -0,2 C 1,6 C 0,0 km/h
14.10.2010 04:00 3,4 C 88 % 1012,2 hPa 0,0 l/m 0,0 km/h O-NO 1,6 C 3,4 C 0,0 km/h
14.10.2010 05:00 4,2 C 88 % 1012,0 hPa 0,0 l/m 0,0 km/h N-NO 2,4 C 4,2 C 0,0 km/h
14.10.2010 06:00 4,3 C 88 % 1012,3 hPa 0,0 l/m 0,0 km/h N-NO 2,5 C 4,3 C 0,0 km/h
14.10.2010 07:00 4,3 C 88 % 1012,5 hPa 0,0 l/m 0,0 km/h O-NO 2,5 C 4,3 C 0,0 km/h
14.10.2010 08:00 4,5 C 88 % 1012,7 hPa 0,0 l/m 0,0 km/h S 2,7 C 4,5 C 0,0 km/h
14.10.2010 09:00 4,9 C 88 % 1013,0 hPa 0,0 l/m 0,0 km/h W-SW 3,1 C 4,9 C 0,0 km/h
14.10.2010 10:00 5,1 C 87 % 1013,7 hPa 0,0 l/m 0,0 km/h W 3,1 C 5,1 C 0,0 km/h
14.10.2010 11:00 6,2 C 87 % 1013,7 hPa 0,0 l/m 0,0 km/h NW 4,2 C 6,2 C 0,0 km/h
14.10.2010 12:00 7,4 C 88 % 1013,7 hPa 0,0 l/m 0,0 km/h W 5,5 C 7,4 C 0,0 km/h
14.10.2010 13:00 7,4 C 88 % 1013,3 hPa 0,0 l/m 0,0 km/h NW 5,5 C 7,4 C 0,0 km/h
14.10.2010 14:00 7,6 C 88 % 1012,9 hPa 0,0 l/m 1,9 km/h W 5,7 C 7,6 C 1,1 km/h
14.10.2010 15:00 7,8 C 88 % 1013,2 hPa 0,0 l/m 0,0 km/h W-SW 5,9 C 7,8 C 0,0 km/h
14.10.2010 16:00 7,4 C 88 % 1013,0 hPa 0,0 l/m 0,0 km/h S-SO 5,5 C 7,4 C 0,0 km/h
14.10.2010 17:00 7,9 C 88 % 1012,8 hPa 0,0 l/m 0,0 km/h SO 6,0 C 7,9 C 0,0 km/h
14.10.2010 18:00 7,6 C 88 % 1012,9 hPa 0,0 l/m 0,0 km/h W 5,7 C 7,6 C 0,0 km/h
14.10.2010 19:00 6,9 C 88 % 1013,4 hPa 0,0 l/m 0,0 km/h N-NO 5,1 C 6,9 C 0,0 km/h
14.10.2010 20:00 6,6 C 88 % 1013,5 hPa 0,0 l/m 0,0 km/h SO 4,8 C 6,6 C 0,0 km/h
14.10.2010 21:00 6,9 C 88 % 1013,7 hPa 0,0 l/m 0,0 km/h SO 5,1 C 6,9 C 0,0 km/h
14.10.2010 22:00 6,6 C 88 % 1013,9 hPa 0,0 l/m 0,0 km/h SO 4,8 C 6,6 C 0,0 km/h
14.10.2010 23:00 6,4 C 88 % 1013,5 hPa 0,0 l/m 0,0 km/h N-NO 4,6 C 6,4 C 0,0 km/h
15.10.2010 00:00 5,9 C 88 % 1013,6 hPa 0,0 l/m 0,0 km/h N-NO 4,1 C 5,9 C 0,0 km/h
15.10.2010 01:00 5,3 C 88 % 1013,3 hPa 0,0 l/m 0,0 km/h N-NO 3,5 C 5,3 C 0,0 km/h
15.10.2010 02:00 4,4 C 88 % 1013,4 hPa 0,0 l/m 0,0 km/h SO 2,6 C 4,4 C 0,0 km/h
15.10.2010 03:00 4,1 C 88 % 1013,3 hPa 0,0 l/m 0,0 km/h N-NW 2,3 C 4,1 C 0,0 km/h
15.10.2010 04:00 3,8 C 88 % 1012,8 hPa 0,0 l/m 0,0 km/h O-SO 2,0 C 3,8 C 0,0 km/h
15.10.2010 05:00 3,6 C 88 % 1012,8 hPa 0,0 l/m 0,0 km/h O-NO 1,8 C 3,6 C 0,0 km/h
15.10.2010 06:00 3,5 C 88 % 1013,0 hPa 0,0 l/m 0,0 km/h O-NO 1,7 C 3,5 C 0,0 km/h
15.10.2010 07:00 3,4 C 88 % 1012,8 hPa 0,0 l/m 0,0 km/h O 1,6 C 3,4 C 0,0 km/h
15.10.2010 08:00 3,8 C 88 % 1012,9 hPa 0,0 l/m 0,0 km/h O 2,0 C 3,8 C 0,0 km/h
15.10.2010 09:00 4,7 C 88 % 1013,2 hPa 0,0 l/m 0,0 km/h NO 2,9 C 4,7 C 0,0 km/h
15.10.2010 10:00 6,5 C 88 % 1013,1 hPa 0,0 l/m 0,0 km/h W-NW 4,7 C 6,5 C 0,0 km/h
15.10.2010 11:00 8,2 C 88 % 1013,1 hPa 0,0 l/m 0,0 km/h W 6,3 C 8,2 C 0,0 km/h
15.10.2010 12:00 8,9 C 86 % 1012,8 hPa 0,0 l/m 0,0 km/h W 6,7 C 8,9 C 0,0 km/h
15.10.2010 13:00 9,5 C 84 % 1012,5 hPa 0,0 l/m 0,0 km/h W 6,9 C 9,5 C 0,0 km/h
15.10.2010 14:00 9,8 C 85 % 1012,2 hPa 0,0 l/m 0,0 km/h O-NO 7,4 C 9,8 C 0,0 km/h
15.10.2010 15:00 10,8 C 78 % 1011,8 hPa 0,0 l/m 0,0 km/h NO 7,1 C 10,8 C 0,0 km/h
15.10.2010 16:00 10,7 C 74 % 1011,4 hPa 0,0 l/m 0,0 km/h NW 6,3 C 10,7 C 0,0 km/h
15.10.2010 17:00 9,8 C 76 % 1011,2 hPa 0,0 l/m 0,0 km/h NW 5,8 C 9,8 C 0,0 km/h
15.10.2010 18:00 8,8 C 81 % 1011,4 hPa 0,0 l/m 0,0 km/h S-SW 5,7 C 8,8 C 0,0 km/h
15.10.2010 19:00 7,8 C 86 % 1011,2 hPa 0,0 l/m 0,0 km/h S 5,6 C 7,8 C 0,0 km/h
15.10.2010 20:00 7,3 C 87 % 1011,1 hPa 0,0 l/m 0,0 km/h SO 5,3 C 7,3 C 0,0 km/h
15.10.2010 21:00 6,9 C 87 % 1010,9 hPa 0,0 l/m 0,0 km/h SO 4,9 C 6,9 C 0,0 km/h
15.10.2010 22:00 6,7 C 87 % 1011,0 hPa 0,0 l/m 0,0 km/h S-SO 4,7 C 6,7 C 0,0 km/h
15.10.2010 23:00 6,5 C 88 % 1010,8 hPa 0,0 l/m 0,0 km/h S-SO 4,7 C 6,5 C 0,0 km/h
16.10.2010 00:00 6,4 C 88 % 1010,4 hPa 0,0 l/m 0,0 km/h O-NO 4,6 C 6,4 C 0,0 km/h
16.10.2010 01:00 6,4 C 88 % 1009,8 hPa 0,0 l/m 0,0 km/h N-NO 4,6 C 6,4 C 0,0 km/h
16.10.2010 02:00 6,4 C 88 % 1009,3 hPa 0,0 l/m 0,0 km/h NO 4,6 C 6,4 C 0,0 km/h
16.10.2010 03:00 6,4 C 88 % 1009,0 hPa 0,0 l/m 0,0 km/h O-SO 4,6 C 6,4 C 0,0 km/h
16.10.2010 04:00 6,4 C 88 % 1008,7 hPa 0,0 l/m 0,0 km/h NW 4,6 C 6,4 C 0,0 km/h
16.10.2010 05:00 6,4 C 88 % 1008,4 hPa 0,0 l/m 0,0 km/h O-SO 4,6 C 6,4 C 0,0 km/h
16.10.2010 06:00 6,4 C 88 % 1008,4 hPa 0,4 l/m 0,0 km/h S-SO 4,6 C 6,4 C 0,0 km/h
16.10.2010 07:00 6,3 C 88 % 1008,3 hPa 0,4 l/m 1,9 km/h S-SO 4,5 C 6,3 C 1,1 km/h
16.10.2010 08:00 6,2 C 88 % 1008,4 hPa 0,4 l/m 0,0 km/h S-SO 4,4 C 6,2 C 0,0 km/h
16.10.2010 09:00 6,6 C 88 % 1008,4 hPa 0,4 l/m 0,0 km/h S-SO 4,8 C 6,6 C 0,0 km/h
16.10.2010 10:00 7,3 C 88 % 1008,5 hPa 0,4 l/m 0,0 km/h S-SO 5,4 C 7,3 C 0,0 km/h
16.10.2010 11:00 7,8 C 88 % 1008,4 hPa 0,4 l/m 0,6 km/h SW 5,9 C 7,8 C 0,4 km/h
16.10.2010 12:00 8,1 C 88 % 1008,6 hPa 0,0 l/m 16,2 km/h S 6,2 C 2,3 C 9,0 km/h
16.10.2010 13:00 8,1 C 88 % 1008,4 hPa 0,7 l/m 0,0 km/h S 6,2 C 8,1 C 0,0 km/h
16.10.2010 14:00 8,4 C 88 % 1008,4 hPa 0,0 l/m 13,6 km/h S-SO 6,5 C 3,9 C 7,6 km/h
16.10.2010 15:00 8,3 C 88 % 1008,3 hPa 0,4 l/m 0,0 km/h O-NO 6,4 C 8,3 C 0,0 km/h
16.10.2010 16:00 7,6 C 88 % 1008,5 hPa 0,4 l/m 0,0 km/h SO 5,7 C 7,6 C 0,0 km/h
16.10.2010 17:00 8,1 C 88 % 1008,8 hPa 0,0 l/m 0,0 km/h SO 6,2 C 8,1 C 0,0 km/h
16.10.2010 18:00 7,5 C 88 % 1009,0 hPa 2,5 l/m 3,2 km/h SO 5,6 C 7,5 C 1,8 km/h
16.10.2010 19:00 7,1 C 88 % 1009,6 hPa 0,4 l/m 0,0 km/h O 5,2 C 7,1 C 0,0 km/h
16.10.2010 20:00 6,9 C 88 % 1010,1 hPa 0,0 l/m 0,0 km/h SO 5,1 C 6,9 C 0,0 km/h
16.10.2010 21:00 6,9 C 87 % 1010,4 hPa 0,0 l/m 0,0 km/h O-SO 4,9 C 6,9 C 0,0 km/h
16.10.2010 22:00 6,9 C 88 % 1010,6 hPa 0,0 l/m 0,0 km/h O-SO 5,1 C 6,9 C 0,0 km/h
16.10.2010 23:00 6,9 C 87 % 1010,9 hPa 0,0 l/m 0,0 km/h O-SO 4,9 C 6,9 C 0,0 km/h
17.10.2010 00:00 7,1 C 88 % 1010,9 hPa 0,4 l/m 0,0 km/h O-SO 5,2 C 7,1 C 0,0 km/h
17.10.2010 01:00 7,1 C 88 % 1010,9 hPa 0,4 l/m 0,0 km/h SO 5,2 C 7,1 C 0,0 km/h
17.10.2010 02:00 7,1 C 88 % 1011,3 hPa 0,0 l/m 0,0 km/h W 5,2 C 7,1 C 0,0 km/h
17.10.2010 03:00 6,4 C 87 % 1011,6 hPa 0,4 l/m 0,0 km/h N 4,4 C 6,4 C 0,0 km/h
17.10.2010 04:00 6,1 C 88 % 1011,7 hPa 0,0 l/m 0,0 km/h N 4,3 C 6,1 C 0,0 km/h
17.10.2010 05:00 5,7 C 88 % 1011,9 hPa 0,0 l/m 0,0 km/h NW 3,9 C 5,7 C 0,0 km/h
17.10.2010 06:00 5,5 C 88 % 1012,3 hPa 0,0 l/m 0,6 km/h W-NW 3,7 C 5,5 C 0,4 km/h
17.10.2010 07:00 5,5 C 88 % 1012,7 hPa 0,0 l/m 0,0 km/h N-NW 3,7 C 5,5 C 0,0 km/h
17.10.2010 08:00 5,7 C 88 % 1012,9 hPa 0,0 l/m 0,0 km/h NW 3,9 C 5,7 C 0,0 km/h
17.10.2010 09:00 6,4 C 88 % 1013,1 hPa 0,0 l/m 0,0 km/h N-NO 4,6 C 6,4 C 0,0 km/h
17.10.2010 10:00 7,6 C 88 % 1013,5 hPa 0,0 l/m 0,0 km/h N-NO 5,7 C 7,6 C 0,0 km/h
17.10.2010 11:00 8,4 C 87 % 1013,9 hPa 0,0 l/m 0,0 km/h N-NO 6,4 C 8,4 C 0,0 km/h
17.10.2010 12:00 8,6 C 86 % 1014,3 hPa 0,0 l/m 0,0 km/h N-NO 6,4 C 8,6 C 0,0 km/h
17.10.2010 13:00 9,2 C 86 % 1014,1 hPa 0,0 l/m 16,2 km/h N 7,0 C 3,7 C 9,0 km/h
17.10.2010 14:00 9,3 C 81 % 1014,1 hPa 0,0 l/m 24,6 km/h N-NO 6,2 C 1,0 C 13,7 km/h
17.10.2010 15:00 7,9 C 86 % 1014,4 hPa 0,0 l/m 1,3 km/h N-NO 5,7 C 7,9 C 0,7 km/h
17.10.2010 16:00 7,4 C 88 % 1014,7 hPa 0,4 l/m 0,0 km/h N-NO 5,5 C 7,4 C 0,0 km/h
17.10.2010 17:00 7,2 C 88 % 1015,0 hPa 0,0 l/m 2,6 km/h N-NO 5,3 C 7,2 C 1,4 km/h
17.10.2010 18:00 6,9 C 88 % 1015,2 hPa 0,0 l/m 0,0 km/h N 5,1 C 6,9 C 0,0 km/h
17.10.2010 19:00 6,9 C 88 % 1015,8 hPa 0,0 l/m 0,0 km/h N 5,1 C 6,9 C 0,0 km/h
17.10.2010 20:00 6,7 C 88 % 1016,1 hPa 0,4 l/m 3,2 km/h NO 4,9 C 6,7 C 1,8 km/h
17.10.2010 21:00 6,7 C 88 % 1016,6 hPa 0,0 l/m 0,0 km/h N-NO 4,9 C 6,7 C 0,0 km/h
17.10.2010 22:00 6,9 C 88 % 1016,8 hPa 0,0 l/m 0,0 km/h W 5,1 C 6,9 C 0,0 km/h
17.10.2010 23:00 6,6 C 88 % 1016,8 hPa 0,0 l/m 0,0 km/h NW 4,8 C 6,6 C 0,0 km/h
Min-Datum _ 12.10.10 11.10.10 11.10.10 - 11.10.10 - 12.10.10 12.10.10 11.10.10
_ Min-Zeit 07:30 16:30 04:30 - 00:30 - 07:30 07:30 00:30
Minimum _ 0,8 C 27 % 1005,1 hPa - 0,0 km/h - -1,0 C 0,8 C 0,0 km/h
Max-Datum _ 11.10.10 11.10.10 17.10.10 16.10.10 17.10.10 - 12.10.10 11.10.10 17.10.10
_ Max-Zeit 16:30 04:30 22:30 18:30 14:30 - 16:30 16:30 14:30
Maximum _ 26,8 C 88 % 1016,8 hPa 2,5 l/m 24,6 km/h
N-NO
- 10,7 C 26,5 C 13,7 km/h
N-NO
Durchschnitt _ 7,5 C 82 % 1011,0 hPa #8,2 l/m 0,6 km/h N-NO 4,3 C 7,3 C 0,4 km/h